createdAt,value
2023-05-09T00:01:14.135Z,6.24
2023-05-09T00:06:17.566Z,6.17
2023-05-09T00:11:22.219Z,6.10
2023-05-09T00:16:26.330Z,6.02
2023-05-09T00:21:29.268Z,5.94
2023-05-09T00:26:32.251Z,5.86
2023-05-09T00:31:35.064Z,5.80
2023-05-09T00:36:37.842Z,5.74
2023-05-09T00:41:40.691Z,5.67
2023-05-09T00:46:43.765Z,5.60
2023-05-09T00:51:48.173Z,5.52
2023-05-09T00:56:51.584Z,5.44
2023-05-09T01:01:54.386Z,5.38
2023-05-09T01:07:02.969Z,5.30
2023-05-09T01:12:31.629Z,5.22
2023-05-09T01:17:53.065Z,5.14
2023-05-09T01:23:05.080Z,5.06
2023-05-09T01:28:14.536Z,4.97
2023-05-09T01:33:19.386Z,4.88
2023-05-09T01:38:25.395Z,4.81
2023-05-09T01:43:30.187Z,4.74
2023-05-09T01:48:36.304Z,4.68
2023-05-09T01:53:40.509Z,4.67
2023-05-09T01:58:45.497Z,4.66
2023-05-09T02:03:52.576Z,4.65
2023-05-09T02:08:56.711Z,4.61
2023-05-09T02:13:59.538Z,4.56
2023-05-09T02:19:03.791Z,4.50
2023-05-09T02:24:07.034Z,4.43
2023-05-09T02:29:13.233Z,4.35
2023-05-09T02:34:17.008Z,4.27
2023-05-09T02:39:19.818Z,4.20
2023-05-09T02:44:22.642Z,4.14
2023-05-09T02:49:32.050Z,4.09
2023-05-09T02:54:35.595Z,4.05
2023-05-09T02:59:38.388Z,4.01
2023-05-09T03:04:42.056Z,3.99
2023-05-09T03:09:44.868Z,4.01
2023-05-09T03:14:48.000Z,4.07
2023-05-09T03:19:51.196Z,4.13
2023-05-09T03:24:53.994Z,4.16
2023-05-09T03:29:56.870Z,4.17
2023-05-09T03:35:00.115Z,4.20
2023-05-09T03:40:02.907Z,4.22
2023-05-09T03:45:06.041Z,4.28
2023-05-09T03:50:09.679Z,4.41
2023-05-09T03:55:12.666Z,4.55
2023-05-09T04:00:16.043Z,4.70
2023-05-09T04:05:19.129Z,4.85
2023-05-09T04:10:21.985Z,5.02
2023-05-09T04:15:24.851Z,5.18
2023-05-09T04:20:27.869Z,5.38
2023-05-09T04:25:38.217Z,5.63
2023-05-09T04:30:40.989Z,6.06
2023-05-09T04:35:43.765Z,9.28
2023-05-09T04:40:47.562Z,14.19
2023-05-09T04:45:50.467Z,18.30
2023-05-09T04:50:53.236Z,21.62
2023-05-09T04:55:56.375Z,24.22
2023-05-09T05:00:59.123Z,25.56
2023-05-09T05:06:01.860Z,23.26
2023-05-09T05:11:04.831Z,20.51
2023-05-09T05:16:07.608Z,18.39
2023-05-09T05:21:10.412Z,16.99
2023-05-09T05:26:13.351Z,16.04
2023-05-09T05:31:16.153Z,15.46
2023-05-09T05:36:20.401Z,15.10
2023-05-09T05:41:27.272Z,14.86
2023-05-09T05:46:30.671Z,14.70
2023-05-09T05:51:33.531Z,14.55
2023-05-09T05:56:36.313Z,14.49
2023-05-09T06:01:39.420Z,14.50
2023-05-09T06:06:44.664Z,14.58
2023-05-09T06:11:47.418Z,14.65
2023-05-09T06:16:50.286Z,14.77
2023-05-09T06:21:53.142Z,14.89
2023-05-09T06:26:58.681Z,15.50
2023-05-09T06:32:01.510Z,19.88
2023-05-09T06:37:04.547Z,24.36
2023-05-09T06:42:09.726Z,27.50
2023-05-09T06:47:12.484Z,29.89
2023-05-09T06:52:18.703Z,31.75
2023-05-09T06:57:21.470Z,33.06
2023-05-09T07:02:25.575Z,33.99
2023-05-09T07:07:31.120Z,34.77
2023-05-09T07:12:34.059Z,35.29
2023-05-09T07:17:37.381Z,35.66
2023-05-09T07:22:40.245Z,35.65
2023-05-09T07:27:43.252Z,35.26
2023-05-09T07:32:46.358Z,35.02
2023-05-09T07:37:49.356Z,35.10
2023-05-09T07:42:55.144Z,34.90
2023-05-09T07:47:58.176Z,34.45
2023-05-09T07:53:07.403Z,33.94
2023-05-09T07:58:11.338Z,33.58
2023-05-09T08:03:14.434Z,33.26
2023-05-09T08:08:17.392Z,32.74
2023-05-09T08:13:20.203Z,31.97
2023-05-09T08:18:23.371Z,31.25
2023-05-09T08:23:28.246Z,30.80
2023-05-09T08:28:34.398Z,30.40
2023-05-09T08:33:59.019Z,29.90
2023-05-09T08:39:04.103Z,29.40
2023-05-09T08:44:07.505Z,28.84
2023-05-09T08:49:11.264Z,28.41
2023-05-09T08:54:15.513Z,27.96
2023-05-09T08:59:19.515Z,27.37
2023-05-09T09:04:22.362Z,26.98
2023-05-09T09:09:26.850Z,26.48
2023-05-09T09:14:32.707Z,26.06
2023-05-09T09:19:37.366Z,25.79
2023-05-09T09:24:40.368Z,25.16
2023-05-09T09:29:44.039Z,24.38
2023-05-09T09:34:50.039Z,23.67
2023-05-09T09:39:57.194Z,22.99
2023-05-09T09:45:03.719Z,22.35
2023-05-09T09:50:26.252Z,21.98
2023-05-09T09:55:31.883Z,21.59
2023-05-09T10:00:34.820Z,21.20
2023-05-09T10:05:45.260Z,20.96
2023-05-09T10:10:54.726Z,20.68
2023-05-09T10:15:59.907Z,20.40
2023-05-09T10:21:06.108Z,20.30
2023-05-09T10:26:22.941Z,20.21
2023-05-09T10:31:29.156Z,20.05
2023-05-09T10:36:38.329Z,19.92
2023-05-09T10:41:41.697Z,19.78
2023-05-09T10:46:46.173Z,19.67
2023-05-09T10:51:52.343Z,19.59
2023-05-09T10:56:56.695Z,19.45
2023-05-09T11:02:02.988Z,19.32
2023-05-09T11:07:23.784Z,19.20
2023-05-09T11:12:27.237Z,19.06
2023-05-09T11:17:32.658Z,18.88
2023-05-09T11:22:41.625Z,18.83
2023-05-09T11:27:46.964Z,18.83
2023-05-09T11:32:55.818Z,18.83
2023-05-09T11:38:06.768Z,18.82
2023-05-09T11:43:09.695Z,18.78
2023-05-09T11:48:13.726Z,18.71
2023-05-09T11:53:16.671Z,18.66
2023-05-09T11:58:21.595Z,18.62
2023-05-09T12:03:25.312Z,18.68
2023-05-09T12:08:28.990Z,18.74
2023-05-09T12:13:32.094Z,18.73
2023-05-09T12:18:35.039Z,18.68
2023-05-09T12:23:38.432Z,18.70
2023-05-09T12:28:42.731Z,18.73
2023-05-09T12:33:46.074Z,18.77
2023-05-09T12:38:53.960Z,18.77
2023-05-09T12:43:57.184Z,18.66
2023-05-09T12:49:06.505Z,18.63
2023-05-09T12:54:13.943Z,18.68
2023-05-09T12:59:24.182Z,18.74
2023-05-09T13:04:39.811Z,18.83
2023-05-09T13:09:57.386Z,18.80
2023-05-09T13:15:00.395Z,18.77
2023-05-09T13:20:08.191Z,18.77
2023-05-09T13:25:11.642Z,18.80
2023-05-09T13:30:15.960Z,18.83
2023-05-09T13:35:19.635Z,18.81
2023-05-09T13:40:22.940Z,18.76
2023-05-09T13:45:26.825Z,18.72
2023-05-09T13:50:30.056Z,18.64
2023-05-09T13:55:34.532Z,18.63
2023-05-09T14:00:37.770Z,18.58
2023-05-09T14:05:40.607Z,18.55
2023-05-09T14:10:45.511Z,18.51
2023-05-09T14:15:50.737Z,18.46
2023-05-09T14:20:53.565Z,18.45
2023-05-09T14:25:56.422Z,18.43
2023-05-09T14:30:59.268Z,18.39
2023-05-09T14:36:03.154Z,18.32
2023-05-09T14:41:07.357Z,18.24
2023-05-09T14:46:11.106Z,18.21
2023-05-09T14:51:14.398Z,18.17
2023-05-09T14:56:17.231Z,18.05
2023-05-09T15:01:20.027Z,17.96
2023-05-09T15:06:24.196Z,17.93
2023-05-09T15:11:28.760Z,17.89
2023-05-09T15:16:34.078Z,17.87
2023-05-09T15:21:36.977Z,17.82
2023-05-09T15:26:39.749Z,17.78
2023-05-09T15:31:42.656Z,17.81
2023-05-09T15:36:45.533Z,19.01
2023-05-09T15:41:48.321Z,18.92
2023-05-09T15:46:51.403Z,18.80
2023-05-09T15:51:54.192Z,18.47
2023-05-09T15:56:57.515Z,18.17
2023-05-09T16:02:00.375Z,17.88
2023-05-09T16:07:03.786Z,17.65
2023-05-09T16:12:07.493Z,17.48
2023-05-09T16:17:10.319Z,17.34
2023-05-09T16:22:13.383Z,17.20
2023-05-09T16:27:17.357Z,17.05
2023-05-09T16:32:20.441Z,16.89
2023-05-09T16:37:24.090Z,16.77
2023-05-09T16:42:28.646Z,16.65
2023-05-09T16:47:31.807Z,16.51
2023-05-09T16:52:34.727Z,16.41
2023-05-09T16:57:37.702Z,16.29
2023-05-09T17:02:41.070Z,16.18
2023-05-09T17:07:45.408Z,16.04
2023-05-09T17:12:48.276Z,15.89
2023-05-09T17:17:51.386Z,15.75
2023-05-09T17:22:54.599Z,15.59
2023-05-09T17:27:57.674Z,15.45
2023-05-09T17:33:00.713Z,15.29
2023-05-09T17:38:03.738Z,15.13
2023-05-09T17:43:06.622Z,14.95
2023-05-09T17:48:09.495Z,14.77
2023-05-09T17:53:13.614Z,14.58
2023-05-09T17:58:18.510Z,14.40
2023-05-09T18:03:21.485Z,14.21
2023-05-09T18:08:24.650Z,14.02
2023-05-09T18:13:27.568Z,13.82
2023-05-09T18:18:34.457Z,13.62
2023-05-09T18:23:37.554Z,13.41
2023-05-09T18:28:40.936Z,13.20
2023-05-09T18:33:45.402Z,13.01
2023-05-09T18:38:48.504Z,12.82
2023-05-09T18:43:51.443Z,12.63
2023-05-09T18:48:54.355Z,12.44
2023-05-09T18:53:57.783Z,12.26
2023-05-09T18:59:00.666Z,12.08
2023-05-09T19:04:04.512Z,11.91
2023-05-09T19:09:07.376Z,11.76
2023-05-09T19:14:10.378Z,11.62
2023-05-09T19:19:15.828Z,11.47
2023-05-09T19:24:18.639Z,11.34
2023-05-09T19:29:21.579Z,11.20
2023-05-09T19:34:25.824Z,11.06
2023-05-09T19:39:29.795Z,10.93
2023-05-09T19:44:32.706Z,10.79
2023-05-09T19:49:35.581Z,10.66
2023-05-09T19:54:38.411Z,10.53
2023-05-09T19:59:41.283Z,10.41
2023-05-09T20:04:49.834Z,10.29
2023-05-09T20:09:52.825Z,10.16
2023-05-09T20:14:55.597Z,10.03
2023-05-09T20:19:58.557Z,9.90
2023-05-09T20:25:01.423Z,9.77
2023-05-09T20:30:07.517Z,9.65
2023-05-09T20:35:10.752Z,9.53
2023-05-09T20:40:14.409Z,9.43
2023-05-09T20:45:17.734Z,9.31
2023-05-09T20:50:21.072Z,9.21
2023-05-09T20:55:24.480Z,9.10
2023-05-09T21:00:27.252Z,8.99
2023-05-09T21:05:30.089Z,8.90
2023-05-09T21:10:32.869Z,8.81
2023-05-09T21:15:35.696Z,8.73
2023-05-09T21:20:38.697Z,8.66
2023-05-09T21:25:42.584Z,8.58
2023-05-09T21:30:51.199Z,8.49
2023-05-09T21:35:54.064Z,8.41
2023-05-09T21:40:58.292Z,8.33
2023-05-09T21:46:01.231Z,8.25
2023-05-09T21:51:04.979Z,8.18
2023-05-09T21:56:08.365Z,8.09
2023-05-09T22:01:11.117Z,8.01
2023-05-09T22:06:13.864Z,7.94
2023-05-09T22:11:18.048Z,7.85
2023-05-09T22:16:22.541Z,7.78
2023-05-09T22:21:25.545Z,7.69
2023-05-09T22:26:28.333Z,7.60
2023-05-09T22:31:31.182Z,7.51
2023-05-09T22:36:33.977Z,7.43
2023-05-09T22:41:36.769Z,7.33
2023-05-09T22:46:39.974Z,7.26
2023-05-09T22:51:42.767Z,7.19
2023-05-09T22:56:45.984Z,7.10
2023-05-09T23:01:48.815Z,7.02
2023-05-09T23:06:51.644Z,6.94
2023-05-09T23:11:55.147Z,6.89
2023-05-09T23:16:58.027Z,6.84
2023-05-09T23:22:00.783Z,6.80
2023-05-09T23:27:03.739Z,6.77
2023-05-09T23:32:06.495Z,6.74
2023-05-09T23:37:09.330Z,6.70
2023-05-09T23:42:12.509Z,6.66
2023-05-09T23:47:15.700Z,6.63
2023-05-09T23:52:18.471Z,6.60
2023-05-09T23:57:21.278Z,6.55
